Centerhill, Florida
Current Conditions -  °F | °C
As of 12:53 PM on Sunday 21 Dec 2014 (Local Time) from KLEE Reporting Station
Few Clouds Few Clouds  
Wind Chill: 76°   Ceiling: Unl
Heat Index: 76°   Visibility: 10mi
Dew Point: 62°   Wind: 5mph
Humidity: 62%   Direction: 310°NW
Pressure: 30.05"   Gusts: NA
Location:  28.6964°N, 82.0038°W
Report Text: KLEE 211753Z 31004KT 10SM FEW049 FEW070 24/17 A3005 RMK AO2 PRESFR SLP175 T02440167 10250 20161 58022
Loading
Personal Weather Stations






























Interactive Weather Map New forecast layout! Learn more

10-Day Weather Forecast

Advertisements
Track Severe Weather on mobile